Terminal Aerodrome Forecast
Issued by NWS

Home | Current Version | Previous Version | Text Only | Print | Product List | Glossary On
Versions: 1 2 3 4 5 6 7 8 9 10 11 12 13 14 15 16 17 18 19 20 21 22 23 24
000
FTUS45 KRIW 221100
TAFJAC
TAF
KJAC 221130Z 2212/2312 VRB04KT P6SM -SHRA SCT010 BKN030
      TEMPO 2213/2215 5SM TSRA BKN025CB
     FM221600 VRB05KT P6SM -SHRA SCT025 BKN040
     FM221900 19010G18KT 6SM -TSRA BKN040CB
     FM222200 18008KT 5SM SHRA SCT018 OVC030
     FM230300 18007KT P6SM -SHRA BKN040
      AMD LTD TO CLD VIS AND WIND=

USA.gov is the U.S. government's official web portal to all federal, state and local government web resources and services.